sensor_id;sensor_type;location;lat;lon;timestamp;pressure;altitude;pressure_sealevel;temperature;humidity
83373;BME280;73281;50.882;5.984;2024-01-15T00:00:36;98699.16;;;0.63;83.17
83373;BME280;73281;50.882;5.984;2024-01-15T00:03:02;98698.31;;;0.50;83.65
83373;BME280;73281;50.882;5.984;2024-01-15T00:05:27;98693.16;;;0.54;83.47
83373;BME280;73281;50.882;5.984;2024-01-15T00:07:52;98690.59;;;0.57;83.09
83373;BME280;73281;50.882;5.984;2024-01-15T00:10:18;98710.28;;;0.65;83.61
83373;BME280;73281;50.882;5.984;2024-01-15T00:12:43;98713.25;;;0.63;83.38
83373;BME280;73281;50.882;5.984;2024-01-15T00:15:09;98697.78;;;0.57;83.77
83373;BME280;73281;50.882;5.984;2024-01-15T00:17:34;98664.81;;;0.37;84.09
83373;BME280;73281;50.882;5.984;2024-01-15T00:19:59;98713.94;;;0.72;83.70
83373;BME280;73281;50.882;5.984;2024-01-15T00:22:25;98693.50;;;0.64;83.33
83373;BME280;73281;50.882;5.984;2024-01-15T00:24:52;98684.63;;;0.60;82.92
83373;BME280;73281;50.882;5.984;2024-01-15T00:27:17;98685.06;;;0.62;83.15
83373;BME280;73281;50.882;5.984;2024-01-15T00:29:42;98667.63;;;0.53;83.46
83373;BME280;73281;50.882;5.984;2024-01-15T00:32:08;98650.19;;;0.43;83.29
83373;BME280;73281;50.882;5.984;2024-01-15T00:34:33;98666.22;;;0.55;83.38
83373;BME280;73281;50.882;5.984;2024-01-15T00:36:58;98685.13;;;0.74;82.97
83373;BME280;73281;50.882;5.984;2024-01-15T00:39:24;98679.91;;;0.78;83.16
83373;BME280;73281;50.882;5.984;2024-01-15T00:41:49;98678.13;;;0.70;83.06
83373;BME280;73281;50.882;5.984;2024-01-15T00:44:15;98665.47;;;0.67;83.14
83373;BME280;73281;50.882;5.984;2024-01-15T00:46:44;98660.13;;;0.67;83.07
83373;BME280;73281;50.882;5.984;2024-01-15T00:49:11;98662.16;;;0.70;82.97
83373;BME280;73281;50.882;5.984;2024-01-15T00:51:36;98644.97;;;0.67;83.25
83373;BME280;73281;50.882;5.984;2024-01-15T00:54:02;98650.16;;;0.64;83.36
83373;BME280;73281;50.882;5.984;2024-01-15T00:56:27;98647.88;;;0.74;83.14
83373;BME280;73281;50.882;5.984;2024-01-15T00:58:53;98663.06;;;0.86;83.16
83373;BME280;73281;50.882;5.984;2024-01-15T01:01:18;98660.41;;;0.86;83.49
83373;BME280;73281;50.882;5.984;2024-01-15T01:03:44;98660.88;;;0.88;83.66
83373;BME280;73281;50.882;5.984;2024-01-15T01:06:09;98642.09;;;0.72;84.24
83373;BME280;73281;50.882;5.984;2024-01-15T01:08:34;98645.84;;;0.71;84.74
83373;BME280;73281;50.882;5.984;2024-01-15T01:11:00;98662.06;;;0.78;85.24
83373;BME280;73281;50.882;5.984;2024-01-15T01:13:25;98655.38;;;0.72;85.04
83373;BME280;73281;50.882;5.984;2024-01-15T01:15:51;98668.16;;;0.79;85.11
83373;BME280;73281;50.882;5.984;2024-01-15T01:18:16;98651.03;;;0.68;85.35
83373;BME280;73281;50.882;5.984;2024-01-15T01:20:41;98659.28;;;0.75;85.87
83373;BME280;73281;50.882;5.984;2024-01-15T01:23:07;98665.84;;;0.77;85.99
83373;BME280;73281;50.882;5.984;2024-01-15T01:25:32;98659.72;;;0.65;85.83
83373;BME280;73281;50.882;5.984;2024-01-15T01:27:57;98656.94;;;0.73;86.57
83373;BME280;73281;50.882;5.984;2024-01-15T01:30:23;98653.84;;;0.71;86.25
83373;BME280;73281;50.882;5.984;2024-01-15T01:32:48;98647.94;;;0.66;86.57
83373;BME280;73281;50.882;5.984;2024-01-15T01:35:14;98659.75;;;0.77;85.84
83373;BME280;73281;50.882;5.984;2024-01-15T01:37:39;98661.28;;;0.78;85.89
83373;BME280;73281;50.882;5.984;2024-01-15T01:40:05;98649.19;;;0.80;86.03
83373;BME280;73281;50.882;5.984;2024-01-15T01:42:31;98657.31;;;0.84;85.54
83373;BME280;73281;50.882;5.984;2024-01-15T01:44:56;98646.41;;;0.65;85.84
83373;BME280;73281;50.882;5.984;2024-01-15T01:47:21;98659.66;;;0.85;85.87
83373;BME280;73281;50.882;5.984;2024-01-15T01:49:47;98643.97;;;0.72;85.85
83373;BME280;73281;50.882;5.984;2024-01-15T01:52:13;98659.16;;;0.71;86.52
83373;BME280;73281;50.882;5.984;2024-01-15T01:54:40;98665.94;;;0.69;86.95
83373;BME280;73281;50.882;5.984;2024-01-15T01:57:05;98670.16;;;0.82;86.78
83373;BME280;73281;50.882;5.984;2024-01-15T01:59:33;98650.31;;;0.79;86.72
83373;BME280;73281;50.882;5.984;2024-01-15T02:02:00;98673.69;;;0.74;87.42
83373;BME280;73281;50.882;5.984;2024-01-15T02:04:28;98662.72;;;0.75;87.64
83373;BME280;73281;50.882;5.984;2024-01-15T02:06:54;98669.91;;;0.75;88.50
83373;BME280;73281;50.882;5.984;2024-01-15T02:09:20;98657.94;;;0.69;88.80
83373;BME280;73281;50.882;5.984;2024-01-15T02:11:48;98663.59;;;0.67;88.63
83373;BME280;73281;50.882;5.984;2024-01-15T02:14:14;98648.81;;;0.58;88.73
83373;BME280;73281;50.882;5.984;2024-01-15T02:16:39;98674.59;;;0.78;88.68
83373;BME280;73281;50.882;5.984;2024-01-15T02:19:05;98655.06;;;0.74;88.74
83373;BME280;73281;50.882;5.984;2024-01-15T02:21:33;98662.63;;;0.72;88.92
83373;BME280;73281;50.882;5.984;2024-01-15T02:23:59;98651.81;;;0.68;88.78
83373;BME280;73281;50.882;5.984;2024-01-15T02:26:24;98644.97;;;0.67;89.08
83373;BME280;73281;50.882;5.984;2024-01-15T02:28:50;98648.31;;;0.76;88.72
83373;BME280;73281;50.882;5.984;2024-01-15T02:31:16;98643.19;;;0.71;88.87
83373;BME280;73281;50.882;5.984;2024-01-15T02:33:42;98663.06;;;0.86;88.58
83373;BME280;73281;50.882;5.984;2024-01-15T02:36:09;98646.44;;;0.77;88.25
83373;BME280;73281;50.882;5.984;2024-01-15T02:38:34;98657.66;;;0.82;88.30
83373;BME280;73281;50.882;5.984;2024-01-15T02:41:00;98658.88;;;0.85;87.77
83373;BME280;73281;50.882;5.984;2024-01-15T02:43:25;98644.09;;;0.75;87.70
83373;BME280;73281;50.882;5.984;2024-01-15T02:45:50;98655.78;;;0.83;88.13
83373;BME280;73281;50.882;5.984;2024-01-15T02:48:16;98648.34;;;0.88;88.05
83373;BME280;73281;50.882;5.984;2024-01-15T02:50:41;98652.44;;;0.86;88.62
83373;BME280;73281;50.882;5.984;2024-01-15T02:53:07;98645.00;;;0.79;88.43
83373;BME280;73281;50.882;5.984;2024-01-15T02:55:32;98641.59;;;0.91;88.48
83373;BME280;73281;50.882;5.984;2024-01-15T02:57:58;98647.56;;;0.88;88.54
83373;BME280;73281;50.882;5.984;2024-01-15T03:00:24;98655.78;;;0.95;88.26
83373;BME280;73281;50.882;5.984;2024-01-15T03:02:50;98634.34;;;0.79;89.03
83373;BME280;73281;50.882;5.984;2024-01-15T03:05:16;98648.53;;;0.83;89.49
83373;BME280;73281;50.882;5.984;2024-01-15T03:07:41;98651.03;;;0.88;89.34
83373;BME280;73281;50.882;5.984;2024-01-15T03:10:07;98629.16;;;0.83;89.57
83373;BME280;73281;50.882;5.984;2024-01-15T03:12:33;98626.81;;;0.81;89.07
83373;BME280;73281;50.882;5.984;2024-01-15T03:14:58;98633.78;;;0.86;89.42
83373;BME280;73281;50.882;5.984;2024-01-15T03:17:24;98615.13;;;0.74;89.57
83373;BME280;73281;50.882;5.984;2024-01-15T03:19:49;98620.13;;;0.75;89.67
83373;BME280;73281;50.882;5.984;2024-01-15T03:22:17;98629.25;;;0.86;89.93
83373;BME280;73281;50.882;5.984;2024-01-15T03:24:43;98631.59;;;0.88;89.83
83373;BME280;73281;50.882;5.984;2024-01-15T03:27:08;98646.22;;;0.82;89.58
83373;BME280;73281;50.882;5.984;2024-01-15T03:29:34;98646.53;;;0.80;89.50
83373;BME280;73281;50.882;5.984;2024-01-15T03:31:59;98632.13;;;0.81;89.80
83373;BME280;73281;50.882;5.984;2024-01-15T03:34:24;98632.47;;;0.92;89.40
83373;BME280;73281;50.882;5.984;2024-01-15T03:36:50;98633.94;;;0.89;89.32
83373;BME280;73281;50.882;5.984;2024-01-15T03:39:15;98621.81;;;0.80;89.06
83373;BME280;73281;50.882;5.984;2024-01-15T03:41:41;98628.78;;;0.84;89.03
83373;BME280;73281;50.882;5.984;2024-01-15T03:44:06;98631.91;;;0.86;89.58
83373;BME280;73281;50.882;5.984;2024-01-15T03:46:32;98630.50;;;1.01;88.94
83373;BME280;73281;50.882;5.984;2024-01-15T03:48:57;98625.06;;;0.97;89.22
83373;BME280;73281;50.882;5.984;2024-01-15T03:51:22;98608.06;;;0.90;88.84
83373;BME280;73281;50.882;5.984;2024-01-15T03:53:48;98624.84;;;1.02;89.03
83373;BME280;73281;50.882;5.984;2024-01-15T03:56:13;98626.19;;;1.08;88.94
83373;BME280;73281;50.882;5.984;2024-01-15T03:58:38;98607.88;;;0.95;88.73
83373;BME280;73281;50.882;5.984;2024-01-15T04:01:08;98619.09;;;1.12;88.69
83373;BME280;73281;50.882;5.984;2024-01-15T04:03:34;98602.78;;;1.02;88.70
83373;BME280;73281;50.882;5.984;2024-01-15T04:05:59;98608.53;;;1.04;88.67
83373;BME280;73281;50.882;5.984;2024-01-15T04:08:24;98620.97;;;1.12;89.03
83373;BME280;73281;50.882;5.984;2024-01-15T04:10:50;98610.66;;;1.10;88.92
83373;BME280;73281;50.882;5.984;2024-01-15T04:13:15;98612.97;;;1.12;89.15
83373;BME280;73281;50.882;5.984;2024-01-15T04:15:41;98610.13;;;1.17;89.09
83373;BME280;73281;50.882;5.984;2024-01-15T04:18:06;98602.56;;;1.07;89.29
83373;BME280;73281;50.882;5.984;2024-01-15T04:20:31;98576.81;;;0.99;89.44
83373;BME280;73281;50.882;5.984;2024-01-15T04:22:57;98600.91;;;1.14;89.56
83373;BME280;73281;50.882;5.984;2024-01-15T04:25:22;98593.56;;;1.11;89.42
83373;BME280;73281;50.882;5.984;2024-01-15T04:27:47;98596.13;;;1.20;89.49
83373;BME280;73281;50.882;5.984;2024-01-15T04:30:13;98586.34;;;1.12;89.32
83373;BME280;73281;50.882;5.984;2024-01-15T04:32:38;98583.91;;;1.07;89.21
83373;BME280;73281;50.882;5.984;2024-01-15T04:35:04;98586.00;;;1.13;89.08
83373;BME280;73281;50.882;5.984;2024-01-15T04:37:29;98579.38;;;1.07;88.84
83373;BME280;73281;50.882;5.984;2024-01-15T04:39:55;98591.91;;;1.07;89.03
83373;BME280;73281;50.882;5.984;2024-01-15T04:42:21;98582.59;;;1.13;89.25
83373;BME280;73281;50.882;5.984;2024-01-15T04:44:47;98564.59;;;0.98;88.82
83373;BME280;73281;50.882;5.984;2024-01-15T04:47:12;98583.25;;;1.10;88.88
83373;BME280;73281;50.882;5.984;2024-01-15T04:49:37;98588.56;;;1.10;88.89
83373;BME280;73281;50.882;5.984;2024-01-15T04:52:03;98565.03;;;1.00;89.05
83373;BME280;73281;50.882;5.984;2024-01-15T04:54:28;98574.13;;;0.99;88.60
83373;BME280;73281;50.882;5.984;2024-01-15T04:56:54;98584.88;;;1.02;89.27
83373;BME280;73281;50.882;5.984;2024-01-15T04:59:19;98568.25;;;1.05;89.00
83373;BME280;73281;50.882;5.984;2024-01-15T05:01:44;98543.19;;;0.82;89.11
83373;BME280;73281;50.882;5.984;2024-01-15T05:04:10;98569.25;;;1.01;88.49
83373;BME280;73281;50.882;5.984;2024-01-15T05:06:35;98549.38;;;0.98;88.33
83373;BME280;73281;50.882;5.984;2024-01-15T05:09:00;98560.69;;;0.95;88.64
83373;BME280;73281;50.882;5.984;2024-01-15T05:11:26;98567.28;;;0.98;88.65
83373;BME280;73281;50.882;5.984;2024-01-15T05:13:51;98546.50;;;0.91;88.81
83373;BME280;73281;50.882;5.984;2024-01-15T05:16:17;98541.41;;;0.98;88.43
83373;BME280;73281;50.882;5.984;2024-01-15T05:18:42;98562.38;;;1.12;88.36
83373;BME280;73281;50.882;5.984;2024-01-15T05:21:08;98561.28;;;1.13;88.38
83373;BME280;73281;50.882;5.984;2024-01-15T05:23:34;98550.84;;;0.96;88.49
83373;BME280;73281;50.882;5.984;2024-01-15T05:26:00;98563.38;;;1.19;88.16
83373;BME280;73281;50.882;5.984;2024-01-15T05:28:25;98546.63;;;1.07;88.15
83373;BME280;73281;50.882;5.984;2024-01-15T05:30:50;98557.81;;;1.24;87.69
83373;BME280;73281;50.882;5.984;2024-01-15T05:33:16;98557.41;;;1.22;87.64
83373;BME280;73281;50.882;5.984;2024-01-15T05:35:42;98542.19;;;1.11;87.80
83373;BME280;73281;50.882;5.984;2024-01-15T05:38:07;98537.41;;;1.16;88.28
83373;BME280;73281;50.882;5.984;2024-01-15T05:40:33;98533.06;;;1.12;87.52
83373;BME280;73281;50.882;5.984;2024-01-15T05:42:58;98550.72;;;1.16;87.70
83373;BME280;73281;50.882;5.984;2024-01-15T05:45:26;98550.53;;;1.21;86.80
83373;BME280;73281;50.882;5.984;2024-01-15T05:47:51;98550.94;;;1.23;87.38
83373;BME280;73281;50.882;5.984;2024-01-15T05:50:17;98542.63;;;1.13;87.36
83373;BME280;73281;50.882;5.984;2024-01-15T05:52:43;98538.41;;;1.12;87.92
83373;BME280;73281;50.882;5.984;2024-01-15T05:55:08;98541.53;;;1.14;88.06
83373;BME280;73281;50.882;5.984;2024-01-15T05:57:35;98533.88;;;1.00;88.34
83373;BME280;73281;50.882;5.984;2024-01-15T06:00:00;98545.53;;;1.20;87.54
83373;BME280;73281;50.882;5.984;2024-01-15T06:02:25;98537.75;;;1.15;87.62
83373;BME280;73281;50.882;5.984;2024-01-15T06:04:51;98536.09;;;1.22;87.74
83373;BME280;73281;50.882;5.984;2024-01-15T06:07:16;98537.97;;;1.22;87.67
83373;BME280;73281;50.882;5.984;2024-01-15T06:09:41;98538.75;;;1.22;87.21
83373;BME280;73281;50.882;5.984;2024-01-15T06:12:07;98547.31;;;1.16;88.30
83373;BME280;73281;50.882;5.984;2024-01-15T06:14:33;98525.63;;;1.17;86.96
83373;BME280;73281;50.882;5.984;2024-01-15T06:16:59;98533.84;;;1.12;87.27
83373;BME280;73281;50.882;5.984;2024-01-15T06:19:24;98537.28;;;1.25;86.86
83373;BME280;73281;50.882;5.984;2024-01-15T06:21:49;98541.28;;;1.19;86.96
83373;BME280;73281;50.882;5.984;2024-01-15T06:24:15;98520.22;;;1.14;86.83
83373;BME280;73281;50.882;5.984;2024-01-15T06:26:43;98531.66;;;1.14;87.38
83373;BME280;73281;50.882;5.984;2024-01-15T06:29:08;98520.13;;;1.10;87.20
83373;BME280;73281;50.882;5.984;2024-01-15T06:31:33;98527.75;;;1.12;87.64
83373;BME280;73281;50.882;5.984;2024-01-15T06:33:59;98514.66;;;1.07;86.53
83373;BME280;73281;50.882;5.984;2024-01-15T06:36:24;98524.66;;;1.10;87.06
83373;BME280;73281;50.882;5.984;2024-01-15T06:38:50;98515.00;;;1.05;86.93
83373;BME280;73281;50.882;5.984;2024-01-15T06:41:15;98530.41;;;1.12;86.77
83373;BME280;73281;50.882;5.984;2024-01-15T06:43:40;98537.53;;;1.20;87.21
83373;BME280;73281;50.882;5.984;2024-01-15T06:46:06;98533.63;;;1.17;86.55
83373;BME280;73281;50.882;5.984;2024-01-15T06:48:31;98531.97;;;1.25;86.92
83373;BME280;73281;50.882;5.984;2024-01-15T06:50:56;98508.09;;;1.16;86.58
83373;BME280;73281;50.882;5.984;2024-01-15T06:53:22;98509.66;;;1.05;86.77
83373;BME280;73281;50.882;5.984;2024-01-15T06:55:48;98514.00;;;1.10;86.46
83373;BME280;73281;50.882;5.984;2024-01-15T06:58:14;98503.56;;;1.17;86.68
83373;BME280;73281;50.882;5.984;2024-01-15T07:00:39;98516.34;;;1.11;86.74
83373;BME280;73281;50.882;5.984;2024-01-15T07:03:05;98503.34;;;1.10;86.94
83373;BME280;73281;50.882;5.984;2024-01-15T07:05:31;98517.31;;;1.19;86.50
83373;BME280;73281;50.882;5.984;2024-01-15T07:07:57;98496.59;;;1.00;86.62
83373;BME280;73281;50.882;5.984;2024-01-15T07:10:22;98516.34;;;1.11;86.49
83373;BME280;73281;50.882;5.984;2024-01-15T07:12:48;98505.78;;;1.03;87.01
83373;BME280;73281;50.882;5.984;2024-01-15T07:15:14;98512.13;;;1.10;86.37
83373;BME280;73281;50.882;5.984;2024-01-15T07:17:39;98494.13;;;0.95;86.92
83373;BME280;73281;50.882;5.984;2024-01-15T07:20:09;98510.66;;;1.01;87.22
83373;BME280;73281;50.882;5.984;2024-01-15T07:22:37;98500.69;;;0.98;86.72
83373;BME280;73281;50.882;5.984;2024-01-15T07:25:03;98500.69;;;1.10;86.59
83373;BME280;73281;50.882;5.984;2024-01-15T07:27:30;98493.69;;;1.05;86.58
83373;BME280;73281;50.882;5.984;2024-01-15T07:29:56;98508.09;;;1.16;86.39
83373;BME280;73281;50.882;5.984;2024-01-15T07:32:21;98503.91;;;1.03;86.78
83373;BME280;73281;50.882;5.984;2024-01-15T07:34:47;98513.75;;;1.15;86.87
83373;BME280;73281;50.882;5.984;2024-01-15T07:37:13;98496.47;;;1.09;86.47
83373;BME280;73281;50.882;5.984;2024-01-15T07:39:39;98501.13;;;1.00;86.75
83373;BME280;73281;50.882;5.984;2024-01-15T07:42:04;98496.25;;;1.02;86.54
83373;BME280;73281;50.882;5.984;2024-01-15T07:44:30;98516.09;;;1.16;86.61
83373;BME280;73281;50.882;5.984;2024-01-15T07:46:55;98523.44;;;1.19;86.34
83373;BME280;73281;50.882;5.984;2024-01-15T07:49:21;98525.88;;;1.12;86.20
83373;BME280;73281;50.882;5.984;2024-01-15T07:51:46;98518.22;;;1.11;85.99
83373;BME280;73281;50.882;5.984;2024-01-15T07:54:11;98537.97;;;1.10;86.17
83373;BME280;73281;50.882;5.984;2024-01-15T07:56:59;98529.41;;;1.16;86.13
83373;BME280;73281;50.882;5.984;2024-01-15T07:59:25;98524.31;;;1.11;85.87
83373;BME280;73281;50.882;5.984;2024-01-15T08:01:52;98526.19;;;1.23;85.80
83373;BME280;73281;50.882;5.984;2024-01-15T08:04:17;98512.13;;;1.10;85.80
83373;BME280;73281;50.882;5.984;2024-01-15T08:06:43;98517.00;;;1.08;86.11
83373;BME280;73281;50.882;5.984;2024-01-15T08:09:08;98525.53;;;1.14;86.84
83373;BME280;73281;50.882;5.984;2024-01-15T08:11:34;98513.78;;;1.03;86.59
83373;BME280;73281;50.882;5.984;2024-01-15T08:14:00;98531.19;;;1.12;86.74
83373;BME280;73281;50.882;5.984;2024-01-15T08:16:26;98536.19;;;1.14;86.65
83373;BME280;73281;50.882;5.984;2024-01-15T08:18:52;98521.34;;;1.13;86.52
83373;BME280;73281;50.882;5.984;2024-01-15T08:21:18;98534.09;;;1.19;86.89
83373;BME280;73281;50.882;5.984;2024-01-15T08:23:44;98508.47;;;1.03;86.99
83373;BME280;73281;50.882;5.984;2024-01-15T08:26:10;98517.78;;;1.09;86.88
83373;BME280;73281;50.882;5.984;2024-01-15T08:28:35;98498.81;;;1.10;85.86
83373;BME280;73281;50.882;5.984;2024-01-15T08:31:01;98522.09;;;1.13;86.44
83373;BME280;73281;50.882;5.984;2024-01-15T08:33:26;98512.22;;;1.02;86.78
83373;BME280;73281;50.882;5.984;2024-01-15T08:35:52;98530.88;;;1.14;87.00
83373;BME280;73281;50.882;5.984;2024-01-15T08:38:18;98530.41;;;1.12;87.07
83373;BME280;73281;50.882;5.984;2024-01-15T08:40:44;98550.41;;;1.18;86.96
83373;BME280;73281;50.882;5.984;2024-01-15T08:43:09;98540.19;;;1.08;86.94
83373;BME280;73281;50.882;5.984;2024-01-15T08:45:35;98532.31;;;0.99;87.32
83373;BME280;73281;50.882;5.984;2024-01-15T08:48:00;98533.31;;;1.07;87.33
83373;BME280;73281;50.882;5.984;2024-01-15T08:50:26;98535.97;;;1.07;87.54
83373;BME280;73281;50.882;5.984;2024-01-15T08:52:51;98542.19;;;1.11;87.15
83373;BME280;73281;50.882;5.984;2024-01-15T08:55:17;98548.84;;;1.05;87.38
83373;BME280;73281;50.882;5.984;2024-01-15T08:57:42;98548.63;;;1.10;87.29
83373;BME280;73281;50.882;5.984;2024-01-15T09:00:08;98548.50;;;1.06;87.40
83373;BME280;73281;50.882;5.984;2024-01-15T09:02:34;98534.75;;;1.04;87.12
83373;BME280;73281;50.882;5.984;2024-01-15T09:05:00;98555.50;;;1.11;86.90
83373;BME280;73281;50.882;5.984;2024-01-15T09:07:26;98557.72;;;1.09;86.46
83373;BME280;73281;50.882;5.984;2024-01-15T09:09:52;98563.94;;;1.13;86.80
83373;BME280;73281;50.882;5.984;2024-01-15T09:12:18;98572.91;;;1.20;87.05
83373;BME280;73281;50.882;5.984;2024-01-15T09:14:46;98564.03;;;1.16;86.78
83373;BME280;73281;50.882;5.984;2024-01-15T09:17:11;98591.09;;;1.06;87.18
83373;BME280;73281;50.882;5.984;2024-01-15T09:19:36;98586.81;;;1.14;87.76
83373;BME280;73281;50.882;5.984;2024-01-15T09:22:04;98576.47;;;1.00;88.08
83373;BME280;73281;50.882;5.984;2024-01-15T09:24:29;98576.91;;;1.02;88.42
83373;BME280;73281;50.882;5.984;2024-01-15T09:26:54;98581.56;;;1.05;88.72
83373;BME280;73281;50.882;5.984;2024-01-15T09:29:20;98562.13;;;0.93;89.04
83373;BME280;73281;50.882;5.984;2024-01-15T09:31:45;98577.22;;;1.01;88.82
83373;BME280;73281;50.882;5.984;2024-01-15T09:34:11;98580.47;;;1.06;89.14
83373;BME280;73281;50.882;5.984;2024-01-15T09:36:40;98574.13;;;0.99;89.39
83373;BME280;73281;50.882;5.984;2024-01-15T09:39:06;98581.00;;;1.00;89.23
83373;BME280;73281;50.882;5.984;2024-01-15T09:41:37;98572.69;;;1.01;89.47
83373;BME280;73281;50.882;5.984;2024-01-15T09:44:03;98567.03;;;1.03;88.94
83373;BME280;73281;50.882;5.984;2024-01-15T09:46:31;98567.13;;;0.94;88.52
83373;BME280;73281;50.882;5.984;2024-01-15T09:48:57;98574.38;;;1.06;88.76
83373;BME280;73281;50.882;5.984;2024-01-15T09:51:24;98569.72;;;1.03;89.00
83373;BME280;73281;50.882;5.984;2024-01-15T09:53:50;98571.56;;;1.02;88.81
83373;BME280;73281;50.882;5.984;2024-01-15T09:56:15;98571.34;;;0.95;89.54
83373;BME280;73281;50.882;5.984;2024-01-15T09:58:41;98546.25;;;0.72;89.52
83373;BME280;73281;50.882;5.984;2024-01-15T10:01:08;98554.81;;;0.90;89.64
83373;BME280;73281;50.882;5.984;2024-01-15T10:03:34;98572.38;;;0.91;90.21
83373;BME280;73281;50.882;5.984;2024-01-15T10:05:59;98563.81;;;0.85;89.71
83373;BME280;73281;50.882;5.984;2024-01-15T10:08:25;98570.81;;;1.02;89.26
83373;BME280;73281;50.882;5.984;2024-01-15T10:10:51;98575.81;;;1.03;89.32
83373;BME280;73281;50.882;5.984;2024-01-15T10:13:17;98574.38;;;0.94;89.18
83373;BME280;73281;50.882;5.984;2024-01-15T10:15:45;98564.28;;;0.99;88.86
83373;BME280;73281;50.882;5.984;2024-01-15T10:18:12;98583.91;;;1.07;88.98
83373;BME280;73281;50.882;5.984;2024-01-15T10:20:37;98568.59;;;1.04;88.34
83373;BME280;73281;50.882;5.984;2024-01-15T10:23:03;98546.94;;;0.93;87.80
83373;BME280;73281;50.882;5.984;2024-01-15T10:25:29;98581.38;;;1.22;87.30
83373;BME280;73281;50.882;5.984;2024-01-15T10:28:03;98576.25;;;1.29;87.18
83373;BME280;73281;50.882;5.984;2024-01-15T10:30:29;98565.28;;;1.31;86.21
83373;BME280;73281;50.882;5.984;2024-01-15T10:32:59;98568.38;;;1.33;85.00
83373;BME280;73281;50.882;5.984;2024-01-15T10:35:29;98577.91;;;1.46;84.73
83373;BME280;73281;50.882;5.984;2024-01-15T10:37:55;98575.13;;;1.42;84.30
83373;BME280;73281;50.882;5.984;2024-01-15T10:40:21;98588.34;;;1.51;84.44
83373;BME280;73281;50.882;5.984;2024-01-15T10:42:46;98559.25;;;1.46;83.75
83373;BME280;73281;50.882;5.984;2024-01-15T10:45:13;98570.81;;;1.50;83.31
83373;BME280;73281;50.882;5.984;2024-01-15T10:47:39;98556.94;;;1.44;82.96
83373;BME280;73281;50.882;5.984;2024-01-15T10:50:05;98576.09;;;1.74;82.96
83373;BME280;73281;50.882;5.984;2024-01-15T10:52:33;98569.66;;;1.75;82.19
83373;BME280;73281;50.882;5.984;2024-01-15T10:55:00;98564.00;;;1.76;82.05
83373;BME280;73281;50.882;5.984;2024-01-15T10:57:26;98567.44;;;1.65;81.96
83373;BME280;73281;50.882;5.984;2024-01-15T10:59:51;98573.25;;;1.67;81.95
83373;BME280;73281;50.882;5.984;2024-01-15T11:02:17;98548.03;;;1.52;81.85
83373;BME280;73281;50.882;5.984;2024-01-15T11:04:42;98563.44;;;1.59;81.46
83373;BME280;73281;50.882;5.984;2024-01-15T11:07:08;98563.59;;;1.50;81.91
83373;BME280;73281;50.882;5.984;2024-01-15T11:09:36;98559.69;;;1.60;81.31
83373;BME280;73281;50.882;5.984;2024-01-15T11:12:12;98565.13;;;1.63;81.09
83373;BME280;73281;50.882;5.984;2024-01-15T11:14:44;98559.13;;;1.66;80.96
83373;BME280;73281;50.882;5.984;2024-01-15T11:17:11;98563.66;;;1.66;81.14
83373;BME280;73281;50.882;5.984;2024-01-15T11:19:38;98561.00;;;1.66;80.48
83373;BME280;73281;50.882;5.984;2024-01-15T11:24:54;98580.78;;;2.04;79.60
83373;BME280;73281;50.882;5.984;2024-01-15T11:27:40;98582.69;;;2.04;79.29
83373;BME280;73281;50.882;5.984;2024-01-15T11:30:08;98575.16;;;1.94;79.19
83373;BME280;73281;50.882;5.984;2024-01-15T11:32:36;98569.25;;;2.00;79.02
83373;BME280;73281;50.882;5.984;2024-01-15T11:35:02;98593.31;;;2.16;78.63
83373;BME280;73281;50.882;5.984;2024-01-15T11:40:36;98589.38;;;2.53;77.66
83373;BME280;73281;50.882;5.984;2024-01-15T11:43:03;98588.19;;;2.50;76.74
83373;BME280;73281;50.882;5.984;2024-01-15T11:45:30;98587.34;;;2.62;76.03
83373;BME280;73281;50.882;5.984;2024-01-15T11:48:15;98568.94;;;2.88;74.18
83373;BME280;73281;50.882;5.984;2024-01-15T11:50:48;98588.66;;;3.45;74.20
83373;BME280;73281;50.882;5.984;2024-01-15T11:53:32;98580.66;;;3.99;71.19
83373;BME280;73281;50.882;5.984;2024-01-15T11:56:01;98578.22;;;4.29;69.52
83373;BME280;73281;50.882;5.984;2024-01-15T11:58:28;98581.22;;;3.89;71.16
83373;BME280;73281;50.882;5.984;2024-01-15T12:00:53;98552.38;;;3.29;72.21
83373;BME280;73281;50.882;5.984;2024-01-15T12:03:24;98581.00;;;2.97;73.51
83373;BME280;73281;50.882;5.984;2024-01-15T12:05:49;98580.47;;;2.76;75.60
83373;BME280;73281;50.882;5.984;2024-01-15T12:08:21;98580.53;;;2.80;76.07
83373;BME280;73281;50.882;5.984;2024-01-15T12:10:46;98582.50;;;2.52;76.20
83373;BME280;73281;50.882;5.984;2024-01-15T12:13:13;98570.25;;;2.51;76.95
83373;BME280;73281;50.882;5.984;2024-01-15T12:15:39;98578.31;;;2.39;76.74
83373;BME280;73281;50.882;5.984;2024-01-15T12:18:10;98552.81;;;2.26;77.08
83373;BME280;73281;50.882;5.984;2024-01-15T12:20:36;98587.25;;;2.31;77.53
83373;BME280;73281;50.882;5.984;2024-01-15T12:23:02;98579.53;;;2.14;77.63
83373;BME280;73281;50.882;5.984;2024-01-15T12:25:34;98590.91;;;2.11;78.37
83373;BME280;73281;50.882;5.984;2024-01-15T12:28:00;98587.66;;;2.17;78.75
83373;BME280;73281;50.882;5.984;2024-01-15T12:30:27;98599.44;;;2.16;79.01
83373;BME280;73281;50.882;5.984;2024-01-15T12:32:52;98587.97;;;2.16;80.16
83373;BME280;73281;50.882;5.984;2024-01-15T12:35:18;98593.78;;;2.06;80.17
83373;BME280;73281;50.882;5.984;2024-01-15T12:37:44;98592.44;;;2.12;80.39
83373;BME280;73281;50.882;5.984;2024-01-15T12:40:12;98608.13;;;2.13;80.18
83373;BME280;73281;50.882;5.984;2024-01-15T12:42:41;98595.59;;;2.02;80.93
83373;BME280;73281;50.882;5.984;2024-01-15T12:45:08;98611.00;;;2.08;81.05
83373;BME280;73281;50.882;5.984;2024-01-15T12:47:34;98617.47;;;2.07;81.51
83373;BME280;73281;50.882;5.984;2024-01-15T12:50:00;98604.72;;;2.01;81.84
83373;BME280;73281;50.882;5.984;2024-01-15T12:52:29;98619.72;;;1.93;83.17
83373;BME280;73281;50.882;5.984;2024-01-15T12:54:55;98602.63;;;1.82;83.28
83373;BME280;73281;50.882;5.984;2024-01-15T12:57:20;98624.63;;;1.91;83.86
83373;BME280;73281;50.882;5.984;2024-01-15T12:59:46;98606.22;;;1.62;83.97
83373;BME280;73281;50.882;5.984;2024-01-15T13:02:13;98619.34;;;1.55;84.55
83373;BME280;73281;50.882;5.984;2024-01-15T13:04:38;98623.88;;;1.67;84.94
83373;BME280;73281;50.882;5.984;2024-01-15T13:07:05;98634.00;;;1.61;84.91
83373;BME280;73281;50.882;5.984;2024-01-15T13:09:31;98628.00;;;1.52;85.24